createdAt,value
2019-02-11T00:03:36.128Z,0.40
2019-02-11T00:08:38.228Z,0.83
2019-02-11T00:13:40.354Z,2.30
2019-02-11T00:18:42.478Z,0.60
2019-02-11T00:23:44.545Z,1.13
2019-02-11T00:28:46.654Z,0.40
2019-02-11T00:33:50.890Z,0.50
2019-02-11T00:38:53.002Z,0.60
2019-02-11T00:43:55.133Z,0.30
2019-02-11T00:48:57.202Z,0.50
2019-02-11T00:54:01.814Z,0.30
2019-02-11T00:59:03.893Z,0.60
2019-02-11T01:04:06.025Z,0.40
2019-02-11T01:09:08.132Z,0.80
2019-02-11T01:14:10.208Z,2.53
2019-02-11T01:19:14.214Z,0.40
2019-02-11T01:24:16.298Z,0.30
2019-02-11T01:29:18.437Z,0.50
2019-02-11T01:34:20.501Z,0.63
2019-02-11T01:39:22.586Z,0.47
2019-02-11T01:44:24.704Z,1.77
2019-02-11T01:49:26.899Z,0.53
2019-02-11T01:54:28.932Z,0.40
2019-02-11T01:59:31.053Z,0.60
2019-02-11T02:04:33.097Z,0.60
2019-02-11T02:09:35.215Z,0.83
2019-02-11T02:14:37.315Z,0.80
2019-02-11T02:19:39.386Z,1.47
2019-02-11T02:24:41.510Z,0.30
2019-02-11T02:29:43.604Z,0.97
2019-02-11T02:34:45.712Z,0.63
2019-02-11T02:39:47.766Z,1.07
2019-02-11T02:44:49.896Z,2.60
2019-02-11T02:49:51.947Z,2.73
2019-02-11T02:54:54.162Z,0.57
2019-02-11T02:59:56.347Z,0.60
2019-02-11T03:04:58.649Z,1.03
2019-02-11T03:10:02.508Z,1.53
2019-02-11T03:15:05.098Z,1.03
2019-02-11T03:20:07.404Z,0.50
2019-02-11T03:25:09.475Z,1.33
2019-02-11T03:30:11.563Z,2.53
2019-02-11T03:35:13.611Z,1.30
2019-02-11T03:40:15.658Z,5.37
2019-02-11T03:45:17.755Z,1.50
2019-02-11T03:50:19.843Z,4.60
2019-02-11T03:55:21.928Z,2.30
2019-02-11T04:00:24.001Z,2.00
2019-02-11T04:05:26.196Z,2.77
2019-02-11T04:10:28.279Z,5.30
2019-02-11T04:15:30.369Z,4.60
2019-02-11T04:20:32.441Z,4.80
2019-02-11T04:25:34.536Z,2.20
2019-02-11T04:30:36.808Z,5.00
2019-02-11T04:35:38.923Z,7.93
2019-02-11T04:40:40.985Z,8.07
2019-02-11T04:45:44.723Z,4.60
2019-02-11T04:50:46.752Z,4.00
2019-02-11T04:55:48.957Z,5.13
2019-02-11T05:00:51.073Z,3.60
2019-02-11T05:05:53.123Z,4.00
2019-02-11T05:10:55.177Z,4.90
2019-02-11T05:15:57.326Z,5.20
2019-02-11T05:20:59.360Z,7.00
2019-02-11T05:26:01.422Z,6.10
2019-02-11T05:31:03.549Z,4.77
2019-02-11T05:36:05.722Z,6.10
2019-02-11T05:41:07.910Z,3.77
2019-02-11T05:46:10.024Z,6.27
2019-02-11T05:51:12.217Z,6.27
2019-02-11T05:56:14.274Z,7.13
2019-02-11T06:01:17.555Z,4.37
2019-02-11T06:06:19.639Z,6.07
2019-02-11T06:11:21.830Z,6.07
2019-02-11T06:16:23.929Z,6.87
2019-02-11T06:21:26.039Z,8.57
2019-02-11T06:26:29.173Z,10.67
2019-02-11T06:31:31.283Z,4.67
2019-02-11T06:36:33.354Z,8.00
2019-02-11T06:41:35.413Z,4.87
2019-02-11T06:46:37.560Z,7.43
2019-02-11T06:51:39.602Z,6.37
2019-02-11T06:56:41.660Z,6.10
2019-02-11T07:01:43.766Z,6.63
2019-02-11T07:06:45.881Z,4.13
2019-02-11T07:11:48.005Z,7.27
2019-02-11T07:16:50.096Z,7.23
2019-02-11T07:21:52.431Z,6.33
2019-02-11T07:26:54.522Z,6.23
2019-02-11T07:31:56.955Z,5.80
2019-02-11T07:36:59.079Z,2.43
2019-02-11T07:42:17.344Z,4.50
2019-02-11T07:47:19.433Z,5.37
2019-02-11T07:52:26.738Z,7.57
2019-02-11T07:57:25.616Z,7.23
2019-02-11T08:02:27.841Z,5.50
2019-02-11T08:07:29.902Z,6.73
2019-02-11T08:12:31.957Z,7.63
2019-02-11T08:17:34.068Z,3.13
2019-02-11T08:22:36.174Z,3.60
2019-02-11T08:27:38.307Z,5.27
2019-02-11T08:32:40.425Z,6.23
2019-02-11T08:37:44.307Z,9.17
2019-02-11T08:42:46.409Z,4.73
2019-02-11T08:47:48.495Z,6.97
2019-02-11T08:52:50.567Z,6.83
2019-02-11T08:57:52.641Z,7.00
2019-02-11T09:02:54.756Z,5.67
2019-02-11T09:07:57.151Z,6.83
2019-02-11T09:12:59.237Z,4.47
2019-02-11T09:18:01.417Z,7.93
2019-02-11T09:23:03.520Z,3.17
2019-02-11T09:28:05.546Z,7.53
2019-02-11T09:33:07.661Z,5.63
2019-02-11T09:38:09.739Z,4.80
2019-02-11T09:43:11.798Z,4.63
2019-02-11T09:48:13.884Z,6.77
2019-02-11T09:53:15.966Z,5.13
2019-02-11T09:58:18.027Z,3.73
2019-02-11T10:03:20.123Z,7.27
2019-02-11T10:08:22.210Z,5.43
2019-02-11T10:13:24.296Z,7.47
2019-02-11T10:18:26.357Z,4.27
2019-02-11T10:23:30.014Z,4.80
2019-02-11T10:28:32.094Z,7.47
2019-02-11T10:33:34.177Z,4.93
2019-02-11T10:38:36.830Z,7.30
2019-02-11T10:43:39.057Z,19.30
2019-02-11T10:48:41.136Z,9.67
2019-02-11T10:53:43.214Z,4.03
2019-02-11T10:58:45.265Z,11.07
2019-02-11T11:03:47.452Z,8.13
2019-02-11T11:08:49.565Z,6.07
2019-02-11T11:13:51.614Z,5.13
2019-02-11T11:18:53.695Z,6.80
2019-02-11T11:23:55.795Z,7.13
2019-02-11T11:28:57.845Z,5.40
2019-02-11T11:34:00.000Z,5.60
2019-02-11T11:39:03.802Z,8.00
2019-02-11T11:44:05.868Z,7.87
2019-02-11T11:49:07.963Z,8.73
2019-02-11T11:54:10.117Z,8.37
2019-02-11T11:59:12.241Z,8.40
2019-02-11T12:04:14.405Z,12.63
2019-02-11T12:09:18.939Z,14.23
2019-02-11T12:14:20.996Z,9.37
2019-02-11T12:19:23.151Z,8.67
2019-02-11T12:24:25.283Z,13.10
2019-02-11T12:29:27.642Z,7.93
2019-02-11T12:34:29.938Z,10.07
2019-02-11T12:39:31.985Z,10.10
2019-02-11T12:44:34.117Z,12.23
2019-02-11T12:49:36.238Z,16.80
2019-02-11T12:54:38.299Z,8.87
2019-02-11T12:59:40.452Z,15.97
2019-02-11T13:04:42.517Z,8.63
2019-02-11T13:09:46.655Z,11.00
2019-02-11T13:14:48.732Z,9.80
2019-02-11T13:20:06.771Z,10.77
2019-02-11T13:24:54.798Z,9.87
2019-02-11T13:29:56.905Z,10.17
2019-02-11T13:34:59.052Z,12.10
2019-02-11T13:40:01.131Z,14.10
2019-02-11T13:45:08.072Z,6.87
2019-02-11T13:50:12.660Z,11.63
2019-02-11T13:55:16.813Z,7.70
2019-02-11T14:00:35.644Z,14.07
2019-02-11T14:05:38.003Z,18.53
2019-02-11T14:10:40.480Z,12.43
2019-02-11T14:15:42.793Z,11.40
2019-02-11T14:20:49.617Z,31.17
2019-02-11T14:25:49.081Z,13.93
2019-02-11T14:30:51.178Z,8.60
2019-02-11T14:35:54.514Z,11.67
2019-02-11T14:40:56.751Z,8.20
2019-02-11T14:45:58.886Z,8.70
2019-02-11T14:51:00.982Z,12.60
2019-02-11T14:56:03.115Z,11.47
2019-02-11T15:01:05.575Z,11.83
2019-02-11T15:06:07.819Z,17.30
2019-02-11T15:11:10.071Z,9.57
2019-02-11T15:16:12.127Z,3.40
2019-02-11T15:21:14.233Z,5.00
2019-02-11T15:26:16.262Z,2.63
2019-02-11T15:31:18.329Z,2.83
2019-02-11T15:36:20.511Z,2.33
2019-02-11T15:41:22.607Z,3.70
2019-02-11T15:46:24.664Z,4.83
2019-02-11T15:51:26.791Z,2.83
2019-02-11T15:56:28.881Z,3.37
2019-02-11T16:01:31.049Z,5.47
2019-02-11T16:06:38.081Z,3.77
2019-02-11T16:11:37.085Z,4.17
2019-02-11T16:16:39.171Z,4.47
2019-02-11T16:21:41.284Z,6.00
2019-02-11T16:26:43.604Z,8.40
2019-02-11T16:31:45.724Z,8.70
2019-02-11T16:36:50.821Z,10.60
2019-02-11T16:41:52.990Z,10.83
2019-02-11T16:46:55.243Z,9.97
2019-02-11T16:51:59.730Z,12.43
2019-02-11T16:57:02.809Z,8.80
2019-02-11T17:02:04.905Z,9.20
2019-02-11T17:07:06.988Z,11.80
2019-02-11T17:12:09.078Z,7.90
2019-02-11T17:17:11.191Z,11.83
2019-02-11T17:22:13.327Z,9.03
2019-02-11T17:27:15.404Z,12.70
2019-02-11T17:32:17.478Z,16.53
2019-02-11T17:37:19.601Z,16.37
2019-02-11T17:42:21.709Z,9.63
2019-02-11T17:47:26.512Z,13.57
2019-02-11T17:52:28.621Z,10.77
2019-02-11T17:57:30.694Z,10.17
2019-02-11T18:02:32.856Z,13.00
2019-02-11T18:07:38.192Z,12.50
2019-02-11T18:12:40.422Z,12.07
2019-02-11T18:17:42.613Z,14.57
2019-02-11T18:22:44.729Z,15.40
2019-02-11T18:27:47.011Z,18.63
2019-02-11T18:32:49.177Z,18.70
2019-02-11T18:37:51.282Z,15.10
2019-02-11T18:42:53.352Z,15.40
2019-02-11T18:47:55.459Z,21.70
2019-02-11T18:52:57.680Z,16.57
2019-02-11T18:57:59.782Z,11.73
2019-02-11T19:03:01.800Z,15.87
2019-02-11T19:08:03.907Z,16.17
2019-02-11T19:13:06.058Z,18.47
2019-02-11T19:18:08.145Z,13.70
2019-02-11T19:23:10.238Z,19.20
2019-02-11T19:28:12.381Z,16.53
2019-02-11T19:33:14.432Z,17.10
2019-02-11T19:38:16.463Z,14.67
2019-02-11T19:43:18.617Z,21.87
2019-02-11T19:48:20.823Z,16.27
2019-02-11T19:53:22.911Z,17.90
2019-02-11T19:58:25.013Z,15.67
2019-02-11T20:03:27.121Z,19.07
2019-02-11T20:08:29.167Z,11.10
2019-02-11T20:13:31.212Z,15.57
2019-02-11T20:18:33.293Z,11.00
2019-02-11T20:23:35.370Z,14.77
2019-02-11T20:28:37.418Z,11.53
2019-02-11T20:33:42.691Z,15.93
2019-02-11T20:38:46.710Z,18.03
2019-02-11T20:43:48.738Z,9.10
2019-02-11T20:48:51.085Z,17.60
2019-02-11T20:53:53.200Z,10.87
2019-02-11T20:58:55.275Z,14.57
2019-02-11T21:03:58.007Z,15.13
2019-02-11T21:09:00.092Z,10.40
2019-02-11T21:14:02.209Z,14.93
2019-02-11T21:19:04.301Z,15.50
2019-02-11T21:24:06.362Z,11.83
2019-02-11T21:29:08.453Z,15.50
2019-02-11T21:34:10.492Z,15.00
2019-02-11T21:39:12.668Z,10.37
2019-02-11T21:44:14.767Z,10.50
2019-02-11T21:49:17.042Z,13.40
2019-02-11T21:54:19.144Z,10.53
2019-02-11T21:59:21.211Z,14.57
2019-02-11T22:04:23.309Z,11.43
2019-02-11T22:09:25.401Z,12.90
2019-02-11T22:14:27.562Z,13.07
2019-02-11T22:19:29.791Z,11.63
2019-02-11T22:24:31.858Z,13.60
2019-02-11T22:29:33.930Z,17.23
2019-02-11T22:34:36.028Z,10.87
2019-02-11T22:39:38.073Z,15.10
2019-02-11T22:44:40.172Z,13.93
2019-02-11T22:49:42.304Z,14.83
2019-02-11T22:54:44.375Z,17.83
2019-02-11T22:59:46.437Z,12.10
2019-02-11T23:04:48.521Z,15.63
2019-02-11T23:09:50.588Z,12.57
2019-02-11T23:14:55.042Z,10.30
2019-02-11T23:19:57.209Z,12.93
2019-02-11T23:24:59.319Z,13.47
2019-02-11T23:30:01.333Z,12.13
2019-02-11T23:35:03.740Z,10.73
2019-02-11T23:40:05.949Z,13.27
2019-02-11T23:45:08.452Z,7.97
2019-02-11T23:50:10.610Z,12.53
2019-02-11T23:55:13.201Z,7.67
